sensor_id;sensor_type;location;lat;lon;timestamp;P1;durP1;ratioP1;P2;durP2;ratioP2
75937;SDS011;64615;32.062;34.834;2024-02-28T00:00:54;14.05;;;7.97;;
75937;SDS011;64615;32.062;34.834;2024-02-28T00:03:20;15.50;;;7.72;;
75937;SDS011;64615;32.062;34.834;2024-02-28T00:05:47;14.50;;;7.15;;
75937;SDS011;64615;32.062;34.834;2024-02-28T00:08:13;15.55;;;8.00;;
75937;SDS011;64615;32.062;34.834;2024-02-28T00:10:39;15.43;;;7.53;;
75937;SDS011;64615;32.062;34.834;2024-02-28T00:13:04;15.63;;;7.72;;
75937;SDS011;64615;32.062;34.834;2024-02-28T00:15:30;13.80;;;7.32;;
75937;SDS011;64615;32.062;34.834;2024-02-28T00:17:55;14.10;;;7.53;;
75937;SDS011;64615;32.062;34.834;2024-02-28T00:20:21;16.92;;;7.53;;
75937;SDS011;64615;32.062;34.834;2024-02-28T00:22:47;12.68;;;7.15;;
75937;SDS011;64615;32.062;34.834;2024-02-28T00:25:13;14.75;;;7.93;;
75937;SDS011;64615;32.062;34.834;2024-02-28T00:27:40;12.48;;;8.05;;
75937;SDS011;64615;32.062;34.834;2024-02-28T00:30:06;14.70;;;7.13;;
75937;SDS011;64615;32.062;34.834;2024-02-28T00:32:32;12.85;;;7.80;;
75937;SDS011;64615;32.062;34.834;2024-02-28T00:34:58;13.80;;;7.82;;
75937;SDS011;64615;32.062;34.834;2024-02-28T00:37:23;15.20;;;7.60;;
75937;SDS011;64615;32.062;34.834;2024-02-28T00:39:50;16.30;;;7.75;;
75937;SDS011;64615;32.062;34.834;2024-02-28T00:42:16;15.15;;;7.80;;
75937;SDS011;64615;32.062;34.834;2024-02-28T00:44:41;12.93;;;7.40;;
75937;SDS011;64615;32.062;34.834;2024-02-28T00:47:08;14.00;;;7.63;;
75937;SDS011;64615;32.062;34.834;2024-02-28T00:49:34;14.30;;;7.82;;
75937;SDS011;64615;32.062;34.834;2024-02-28T00:52:00;14.30;;;7.45;;
75937;SDS011;64615;32.062;34.834;2024-02-28T00:54:26;13.73;;;7.85;;
75937;SDS011;64615;32.062;34.834;2024-02-28T00:56:52;16.13;;;8.02;;
75937;SDS011;64615;32.062;34.834;2024-02-28T00:59:17;12.60;;;7.78;;
75937;SDS011;64615;32.062;34.834;2024-02-28T01:01:43;13.38;;;7.88;;
75937;SDS011;64615;32.062;34.834;2024-02-28T01:04:09;15.15;;;7.85;;
75937;SDS011;64615;32.062;34.834;2024-02-28T01:06:34;13.60;;;7.32;;
75937;SDS011;64615;32.062;34.834;2024-02-28T01:09:00;15.80;;;8.18;;
75937;SDS011;64615;32.062;34.834;2024-02-28T01:11:26;15.55;;;7.88;;
75937;SDS011;64615;32.062;34.834;2024-02-28T01:13:51;14.38;;;7.43;;
75937;SDS011;64615;32.062;34.834;2024-02-28T01:16:17;12.38;;;7.70;;
75937;SDS011;64615;32.062;34.834;2024-02-28T01:18:42;12.88;;;7.57;;
75937;SDS011;64615;32.062;34.834;2024-02-28T01:21:08;16.90;;;7.88;;
75937;SDS011;64615;32.062;34.834;2024-02-28T01:23:34;14.75;;;7.82;;
75937;SDS011;64615;32.062;34.834;2024-02-28T01:26:00;13.77;;;7.38;;
75937;SDS011;64615;32.062;34.834;2024-02-28T01:30:53;14.30;;;8.18;;
75937;SDS011;64615;32.062;34.834;2024-02-28T01:33:19;16.10;;;7.82;;
75937;SDS011;64615;32.062;34.834;2024-02-28T01:35:44;13.18;;;7.78;;
75937;SDS011;64615;32.062;34.834;2024-02-28T01:38:10;14.48;;;7.80;;
75937;SDS011;64615;32.062;34.834;2024-02-28T01:40:36;15.73;;;7.97;;
75937;SDS011;64615;32.062;34.834;2024-02-28T01:43:02;13.45;;;7.70;;
75937;SDS011;64615;32.062;34.834;2024-02-28T01:45:29;14.35;;;7.20;;
75937;SDS011;64615;32.062;34.834;2024-02-28T01:47:54;13.02;;;7.70;;
75937;SDS011;64615;32.062;34.834;2024-02-28T01:50:20;14.43;;;8.70;;
75937;SDS011;64615;32.062;34.834;2024-02-28T01:52:46;13.75;;;7.53;;
75937;SDS011;64615;32.062;34.834;2024-02-28T01:55:12;16.42;;;8.57;;
75937;SDS011;64615;32.062;34.834;2024-02-28T01:57:38;12.45;;;7.10;;
75937;SDS011;64615;32.062;34.834;2024-02-28T02:00:05;14.02;;;7.75;;
75937;SDS011;64615;32.062;34.834;2024-02-28T02:02:33;15.07;;;7.70;;
75937;SDS011;64615;32.062;34.834;2024-02-28T02:04:59;14.38;;;7.50;;
75937;SDS011;64615;32.062;34.834;2024-02-28T02:07:25;14.35;;;7.68;;
75937;SDS011;64615;32.062;34.834;2024-02-28T02:09:51;13.60;;;8.13;;
75937;SDS011;64615;32.062;34.834;2024-02-28T02:12:18;12.48;;;7.22;;
75937;SDS011;64615;32.062;34.834;2024-02-28T02:14:47;14.32;;;7.28;;
75937;SDS011;64615;32.062;34.834;2024-02-28T02:17:15;13.02;;;6.97;;
75937;SDS011;64615;32.062;34.834;2024-02-28T02:19:41;13.30;;;7.97;;
75937;SDS011;64615;32.062;34.834;2024-02-28T02:22:08;12.90;;;7.35;;
75937;SDS011;64615;32.062;34.834;2024-02-28T02:24:34;15.75;;;8.60;;
75937;SDS011;64615;32.062;34.834;2024-02-28T02:26:59;14.15;;;7.78;;
75937;SDS011;64615;32.062;34.834;2024-02-28T02:29:25;16.95;;;7.78;;
75937;SDS011;64615;32.062;34.834;2024-02-28T02:31:53;14.15;;;7.85;;
75937;SDS011;64615;32.062;34.834;2024-02-28T02:34:19;13.65;;;7.53;;
75937;SDS011;64615;32.062;34.834;2024-02-28T02:36:44;14.90;;;7.63;;
75937;SDS011;64615;32.062;34.834;2024-02-28T02:39:10;17.02;;;8.02;;
75937;SDS011;64615;32.062;34.834;2024-02-28T02:41:36;12.07;;;7.70;;
75937;SDS011;64615;32.062;34.834;2024-02-28T02:44:01;16.35;;;8.25;;
75937;SDS011;64615;32.062;34.834;2024-02-28T02:46:27;15.48;;;8.45;;
75937;SDS011;64615;32.062;34.834;2024-02-28T02:48:52;14.65;;;8.07;;
75937;SDS011;64615;32.062;34.834;2024-02-28T02:51:19;15.65;;;7.72;;
75937;SDS011;64615;32.062;34.834;2024-02-28T02:53:45;15.88;;;8.20;;
75937;SDS011;64615;32.062;34.834;2024-02-28T02:56:10;14.27;;;7.47;;
75937;SDS011;64615;32.062;34.834;2024-02-28T02:58:36;16.35;;;7.85;;
75937;SDS011;64615;32.062;34.834;2024-02-28T03:01:02;15.80;;;7.72;;
75937;SDS011;64615;32.062;34.834;2024-02-28T03:03:27;13.05;;;7.95;;
75937;SDS011;64615;32.062;34.834;2024-02-28T03:05:53;12.00;;;7.80;;
75937;SDS011;64615;32.062;34.834;2024-02-28T03:08:19;13.25;;;7.78;;
75937;SDS011;64615;32.062;34.834;2024-02-28T03:10:44;14.13;;;7.75;;
75937;SDS011;64615;32.062;34.834;2024-02-28T03:13:10;12.98;;;7.43;;
75937;SDS011;64615;32.062;34.834;2024-02-28T03:15:36;15.25;;;7.35;;
75937;SDS011;64615;32.062;34.834;2024-02-28T03:18:01;15.60;;;7.90;;
75937;SDS011;64615;32.062;34.834;2024-02-28T03:20:27;14.25;;;7.70;;
75937;SDS011;64615;32.062;34.834;2024-02-28T03:22:52;17.35;;;8.77;;
75937;SDS011;64615;32.062;34.834;2024-02-28T03:25:18;18.58;;;7.93;;
75937;SDS011;64615;32.062;34.834;2024-02-28T03:27:44;13.50;;;7.82;;
75937;SDS011;64615;32.062;34.834;2024-02-28T03:30:09;13.65;;;7.70;;
75937;SDS011;64615;32.062;34.834;2024-02-28T03:32:35;15.38;;;7.82;;
75937;SDS011;64615;32.062;34.834;2024-02-28T03:35:01;21.00;;;8.02;;
75937;SDS011;64615;32.062;34.834;2024-02-28T03:37:26;12.30;;;7.40;;
75937;SDS011;64615;32.062;34.834;2024-02-28T03:39:52;13.60;;;7.57;;
75937;SDS011;64615;32.062;34.834;2024-02-28T03:42:18;17.27;;;7.72;;
75937;SDS011;64615;32.062;34.834;2024-02-28T03:44:44;16.85;;;7.97;;
75937;SDS011;64615;32.062;34.834;2024-02-28T03:47:09;14.63;;;7.82;;
75937;SDS011;64615;32.062;34.834;2024-02-28T03:49:35;14.75;;;7.50;;
75937;SDS011;64615;32.062;34.834;2024-02-28T03:52:01;15.10;;;7.60;;
75937;SDS011;64615;32.062;34.834;2024-02-28T03:54:26;16.00;;;7.55;;
75937;SDS011;64615;32.062;34.834;2024-02-28T03:56:52;14.95;;;7.70;;
75937;SDS011;64615;32.062;34.834;2024-02-28T03:59:17;15.40;;;7.50;;
75937;SDS011;64615;32.062;34.834;2024-02-28T04:01:44;21.13;;;7.30;;
75937;SDS011;64615;32.062;34.834;2024-02-28T04:04:09;14.73;;;7.63;;
75937;SDS011;64615;32.062;34.834;2024-02-28T04:06:35;14.82;;;8.20;;
75937;SDS011;64615;32.062;34.834;2024-02-28T04:09:01;11.82;;;7.13;;
75937;SDS011;64615;32.062;34.834;2024-02-28T04:11:28;15.80;;;7.70;;
75937;SDS011;64615;32.062;34.834;2024-02-28T04:13:53;15.07;;;7.78;;
75937;SDS011;64615;32.062;34.834;2024-02-28T04:16:19;13.55;;;7.57;;
75937;SDS011;64615;32.062;34.834;2024-02-28T04:18:45;14.07;;;7.68;;
75937;SDS011;64615;32.062;34.834;2024-02-28T04:21:10;14.77;;;7.65;;
75937;SDS011;64615;32.062;34.834;2024-02-28T04:23:36;15.10;;;7.60;;
75937;SDS011;64615;32.062;34.834;2024-02-28T04:26:03;15.75;;;7.78;;
75937;SDS011;64615;32.062;34.834;2024-02-28T04:28:29;16.08;;;7.63;;
75937;SDS011;64615;32.062;34.834;2024-02-28T04:30:55;17.80;;;7.63;;
75937;SDS011;64615;32.062;34.834;2024-02-28T04:33:21;21.05;;;8.25;;
75937;SDS011;64615;32.062;34.834;2024-02-28T04:35:47;20.83;;;7.93;;
75937;SDS011;64615;32.062;34.834;2024-02-28T04:38:13;50.47;;;9.50;;
75937;SDS011;64615;32.062;34.834;2024-02-28T04:40:39;23.15;;;9.13;;
75937;SDS011;64615;32.062;34.834;2024-02-28T04:43:05;35.35;;;8.63;;
75937;SDS011;64615;32.062;34.834;2024-02-28T04:45:30;31.30;;;8.88;;
75937;SDS011;64615;32.062;34.834;2024-02-28T04:47:56;34.10;;;9.52;;
75937;SDS011;64615;32.062;34.834;2024-02-28T04:50:23;24.67;;;10.35;;
75937;SDS011;64615;32.062;34.834;2024-02-28T04:52:49;34.97;;;11.23;;
75937;SDS011;64615;32.062;34.834;2024-02-28T04:55:14;29.63;;;11.43;;
75937;SDS011;64615;32.062;34.834;2024-02-28T04:57:40;27.65;;;10.93;;
75937;SDS011;64615;32.062;34.834;2024-02-28T05:00:06;29.02;;;11.57;;
75937;SDS011;64615;32.062;34.834;2024-02-28T05:02:33;27.23;;;11.55;;
75937;SDS011;64615;32.062;34.834;2024-02-28T05:04:59;37.58;;;11.05;;
75937;SDS011;64615;32.062;34.834;2024-02-28T05:07:24;29.85;;;11.50;;
75937;SDS011;64615;32.062;34.834;2024-02-28T05:09:50;32.10;;;11.50;;
75937;SDS011;64615;32.062;34.834;2024-02-28T05:12:16;30.25;;;12.13;;
75937;SDS011;64615;32.062;34.834;2024-02-28T05:14:41;25.02;;;10.75;;
75937;SDS011;64615;32.062;34.834;2024-02-28T05:17:07;27.10;;;11.43;;
75937;SDS011;64615;32.062;34.834;2024-02-28T05:19:32;34.28;;;11.27;;
75937;SDS011;64615;32.062;34.834;2024-02-28T05:21:58;28.50;;;11.38;;
75937;SDS011;64615;32.062;34.834;2024-02-28T05:24:26;30.25;;;11.13;;
75937;SDS011;64615;32.062;34.834;2024-02-28T05:26:51;30.33;;;11.82;;
75937;SDS011;64615;32.062;34.834;2024-02-28T05:29:17;30.35;;;11.73;;
75937;SDS011;64615;32.062;34.834;2024-02-28T05:31:43;31.40;;;12.13;;
75937;SDS011;64615;32.062;34.834;2024-02-28T05:34:08;37.58;;;12.98;;
75937;SDS011;64615;32.062;34.834;2024-02-28T05:36:34;34.58;;;13.10;;
75937;SDS011;64615;32.062;34.834;2024-02-28T05:39:00;41.15;;;13.75;;
75937;SDS011;64615;32.062;34.834;2024-02-28T05:41:27;30.98;;;12.98;;
75937;SDS011;64615;32.062;34.834;2024-02-28T05:43:52;36.63;;;12.60;;
75937;SDS011;64615;32.062;34.834;2024-02-28T05:46:18;30.10;;;13.00;;
75937;SDS011;64615;32.062;34.834;2024-02-28T05:48:45;37.78;;;13.35;;
75937;SDS011;64615;32.062;34.834;2024-02-28T05:51:12;29.52;;;13.18;;
75937;SDS011;64615;32.062;34.834;2024-02-28T05:53:40;33.70;;;12.77;;
75937;SDS011;64615;32.062;34.834;2024-02-28T05:56:07;25.85;;;11.52;;
75937;SDS011;64615;32.062;34.834;2024-02-28T05:58:42;26.77;;;11.18;;
75937;SDS011;64615;32.062;34.834;2024-02-28T06:01:09;24.42;;;11.10;;
75937;SDS011;64615;32.062;34.834;2024-02-28T06:03:38;22.92;;;9.82;;
75937;SDS011;64615;32.062;34.834;2024-02-28T06:06:04;23.33;;;10.18;;
75937;SDS011;64615;32.062;34.834;2024-02-28T06:08:33;22.52;;;10.02;;
75937;SDS011;64615;32.062;34.834;2024-02-28T06:10:59;21.30;;;9.85;;
75937;SDS011;64615;32.062;34.834;2024-02-28T06:13:26;21.48;;;9.23;;
75937;SDS011;64615;32.062;34.834;2024-02-28T06:15:54;21.63;;;9.43;;
75937;SDS011;64615;32.062;34.834;2024-02-28T06:18:19;19.05;;;8.85;;
75937;SDS011;64615;32.062;34.834;2024-02-28T06:20:48;21.13;;;8.98;;
75937;SDS011;64615;32.062;34.834;2024-02-28T06:23:14;20.15;;;9.45;;
75937;SDS011;64615;32.062;34.834;2024-02-28T06:25:39;21.40;;;8.65;;
75937;SDS011;64615;32.062;34.834;2024-02-28T06:28:05;18.55;;;8.38;;
75937;SDS011;64615;32.062;34.834;2024-02-28T06:30:32;19.30;;;8.15;;
75937;SDS011;64615;32.062;34.834;2024-02-28T06:32:59;18.85;;;8.13;;
75937;SDS011;64615;32.062;34.834;2024-02-28T06:35:25;16.15;;;7.97;;
75937;SDS011;64615;32.062;34.834;2024-02-28T06:37:51;24.08;;;7.85;;
75937;SDS011;64615;32.062;34.834;2024-02-28T06:40:16;18.08;;;8.32;;
75937;SDS011;64615;32.062;34.834;2024-02-28T06:42:42;18.10;;;7.65;;
75937;SDS011;64615;32.062;34.834;2024-02-28T06:45:08;17.10;;;8.15;;
75937;SDS011;64615;32.062;34.834;2024-02-28T06:47:34;17.45;;;7.82;;
75937;SDS011;64615;32.062;34.834;2024-02-28T06:50:01;16.67;;;7.22;;
75937;SDS011;64615;32.062;34.834;2024-02-28T06:52:27;16.30;;;7.05;;
75937;SDS011;64615;32.062;34.834;2024-02-28T06:54:53;15.02;;;7.78;;
75937;SDS011;64615;32.062;34.834;2024-02-28T06:57:19;15.00;;;7.20;;
75937;SDS011;64615;32.062;34.834;2024-02-28T06:59:44;13.40;;;6.85;;
75937;SDS011;64615;32.062;34.834;2024-02-28T07:02:10;16.80;;;6.97;;
75937;SDS011;64615;32.062;34.834;2024-02-28T07:04:37;13.70;;;6.30;;
75937;SDS011;64615;32.062;34.834;2024-02-28T07:07:03;13.98;;;6.78;;
75937;SDS011;64615;32.062;34.834;2024-02-28T07:09:30;16.30;;;6.85;;
75937;SDS011;64615;32.062;34.834;2024-02-28T07:11:57;13.55;;;6.90;;
75937;SDS011;64615;32.062;34.834;2024-02-28T07:14:23;14.25;;;6.68;;
75937;SDS011;64615;32.062;34.834;2024-02-28T07:16:49;13.68;;;6.30;;
75937;SDS011;64615;32.062;34.834;2024-02-28T07:19:17;13.60;;;6.47;;
75937;SDS011;64615;32.062;34.834;2024-02-28T07:21:43;22.98;;;6.63;;
75937;SDS011;64615;32.062;34.834;2024-02-28T07:24:09;15.05;;;6.35;;
75937;SDS011;64615;32.062;34.834;2024-02-28T07:26:35;15.88;;;6.32;;
75937;SDS011;64615;32.062;34.834;2024-02-28T07:29:01;13.38;;;6.70;;
75937;SDS011;64615;32.062;34.834;2024-02-28T07:31:27;15.48;;;6.38;;
75937;SDS011;64615;32.062;34.834;2024-02-28T07:33:52;12.32;;;5.95;;
75937;SDS011;64615;32.062;34.834;2024-02-28T07:36:19;12.18;;;5.70;;
75937;SDS011;64615;32.062;34.834;2024-02-28T07:38:45;12.38;;;5.15;;
75937;SDS011;64615;32.062;34.834;2024-02-28T07:41:11;11.75;;;5.40;;
75937;SDS011;64615;32.062;34.834;2024-02-28T07:43:37;12.85;;;5.60;;
75937;SDS011;64615;32.062;34.834;2024-02-28T07:46:07;12.93;;;5.30;;
75937;SDS011;64615;32.062;34.834;2024-02-28T07:48:33;12.40;;;5.30;;
75937;SDS011;64615;32.062;34.834;2024-02-28T07:50:59;14.63;;;5.25;;
75937;SDS011;64615;32.062;34.834;2024-02-28T07:53:26;12.90;;;5.30;;
75937;SDS011;64615;32.062;34.834;2024-02-28T07:55:52;11.95;;;4.88;;
75937;SDS011;64615;32.062;34.834;2024-02-28T07:58:17;11.05;;;4.85;;
75937;SDS011;64615;32.062;34.834;2024-02-28T08:00:43;12.10;;;4.78;;
75937;SDS011;64615;32.062;34.834;2024-02-28T08:03:09;12.40;;;4.47;;
75937;SDS011;64615;32.062;34.834;2024-02-28T08:05:35;11.88;;;4.60;;
75937;SDS011;64615;32.062;34.834;2024-02-28T08:08:07;13.43;;;4.47;;
75937;SDS011;64615;32.062;34.834;2024-02-28T08:10:33;16.02;;;4.57;;
75937;SDS011;64615;32.062;34.834;2024-02-28T08:13:03;10.55;;;4.47;;
75937;SDS011;64615;32.062;34.834;2024-02-28T08:15:29;17.85;;;5.28;;
75937;SDS011;64615;32.062;34.834;2024-02-28T08:17:55;12.75;;;4.38;;
75937;SDS011;64615;32.062;34.834;2024-02-28T08:20:21;11.55;;;4.63;;
75937;SDS011;64615;32.062;34.834;2024-02-28T08:22:46;9.60;;;4.20;;
75937;SDS011;64615;32.062;34.834;2024-02-28T08:25:12;12.57;;;4.43;;
75937;SDS011;64615;32.062;34.834;2024-02-28T08:27:39;12.30;;;4.15;;
75937;SDS011;64615;32.062;34.834;2024-02-28T08:30:05;9.85;;;4.18;;
75937;SDS011;64615;32.062;34.834;2024-02-28T08:32:31;12.20;;;4.45;;
75937;SDS011;64615;32.062;34.834;2024-02-28T08:34:57;11.63;;;4.07;;
75937;SDS011;64615;32.062;34.834;2024-02-28T08:37:23;9.60;;;4.05;;
75937;SDS011;64615;32.062;34.834;2024-02-28T08:39:50;8.30;;;4.07;;
75937;SDS011;64615;32.062;34.834;2024-02-28T08:42:16;11.27;;;4.22;;
75937;SDS011;64615;32.062;34.834;2024-02-28T08:44:42;15.43;;;4.30;;
75937;SDS011;64615;32.062;34.834;2024-02-28T08:47:07;15.07;;;4.80;;
75937;SDS011;64615;32.062;34.834;2024-02-28T08:49:34;13.45;;;3.78;;
75937;SDS011;64615;32.062;34.834;2024-02-28T08:52:01;9.20;;;3.80;;
75937;SDS011;64615;32.062;34.834;2024-02-28T08:54:27;10.45;;;3.78;;
75937;SDS011;64615;32.062;34.834;2024-02-28T08:56:52;12.57;;;3.65;;
75937;SDS011;64615;32.062;34.834;2024-02-28T08:59:18;7.78;;;3.67;;
75937;SDS011;64615;32.062;34.834;2024-02-28T09:01:44;8.63;;;4.10;;
75937;SDS011;64615;32.062;34.834;2024-02-28T09:04:09;9.52;;;4.15;;
75937;SDS011;64615;32.062;34.834;2024-02-28T09:06:35;7.50;;;3.42;;
75937;SDS011;64615;32.062;34.834;2024-02-28T09:09:00;10.35;;;3.83;;
75937;SDS011;64615;32.062;34.834;2024-02-28T09:11:26;12.23;;;3.95;;
75937;SDS011;64615;32.062;34.834;2024-02-28T09:13:52;8.20;;;3.22;;
75937;SDS011;64615;32.062;34.834;2024-02-28T09:16:18;10.80;;;3.70;;
75937;SDS011;64615;32.062;34.834;2024-02-28T09:18:44;9.70;;;3.70;;
75937;SDS011;64615;32.062;34.834;2024-02-28T09:21:09;12.82;;;3.72;;
75937;SDS011;64615;32.062;34.834;2024-02-28T09:23:35;10.57;;;3.80;;
75937;SDS011;64615;32.062;34.834;2024-02-28T09:26:04;7.82;;;3.08;;
75937;SDS011;64615;32.062;34.834;2024-02-28T09:28:30;12.63;;;3.75;;
75937;SDS011;64615;32.062;34.834;2024-02-28T09:30:56;8.68;;;3.20;;
75937;SDS011;64615;32.062;34.834;2024-02-28T09:33:22;13.45;;;3.78;;
75937;SDS011;64615;32.062;34.834;2024-02-28T09:35:48;10.73;;;3.75;;
75937;SDS011;64615;32.062;34.834;2024-02-28T09:38:14;8.60;;;3.70;;
75937;SDS011;64615;32.062;34.834;2024-02-28T09:40:39;9.60;;;3.47;;
75937;SDS011;64615;32.062;34.834;2024-02-28T09:43:05;7.53;;;3.28;;
75937;SDS011;64615;32.062;34.834;2024-02-28T09:45:38;8.10;;;3.58;;
75937;SDS011;64615;32.062;34.834;2024-02-28T09:48:05;7.43;;;3.47;;
75937;SDS011;64615;32.062;34.834;2024-02-28T09:50:32;10.88;;;3.40;;
75937;SDS011;64615;32.062;34.834;2024-02-28T09:52:58;10.13;;;3.45;;
75937;SDS011;64615;32.062;34.834;2024-02-28T09:55:24;7.70;;;3.63;;
75937;SDS011;64615;32.062;34.834;2024-02-28T09:57:50;8.55;;;3.80;;
75937;SDS011;64615;32.062;34.834;2024-02-28T10:00:19;8.93;;;3.35;;
75937;SDS011;64615;32.062;34.834;2024-02-28T10:02:48;7.68;;;3.15;;
75937;SDS011;64615;32.062;34.834;2024-02-28T10:05:16;7.63;;;3.33;;
75937;SDS011;64615;32.062;34.834;2024-02-28T10:07:45;8.93;;;3.13;;
75937;SDS011;64615;32.062;34.834;2024-02-28T10:10:12;11.52;;;3.35;;
75937;SDS011;64615;32.062;34.834;2024-02-28T10:12:41;7.78;;;3.03;;
75937;SDS011;64615;32.062;34.834;2024-02-28T10:15:10;9.02;;;3.53;;
75937;SDS011;64615;32.062;34.834;2024-02-28T10:17:36;10.65;;;3.30;;
75937;SDS011;64615;32.062;34.834;2024-02-28T10:20:02;10.63;;;3.50;;
75937;SDS011;64615;32.062;34.834;2024-02-28T10:22:38;6.25;;;2.72;;
75937;SDS011;64615;32.062;34.834;2024-02-28T10:25:04;8.63;;;3.60;;
75937;SDS011;64615;32.062;34.834;2024-02-28T10:27:33;8.40;;;3.50;;
75937;SDS011;64615;32.062;34.834;2024-02-28T10:30:00;10.10;;;3.60;;
75937;SDS011;64615;32.062;34.834;2024-02-28T10:32:32;7.40;;;3.30;;
75937;SDS011;64615;32.062;34.834;2024-02-28T10:37:26;7.68;;;3.15;;
75937;SDS011;64615;32.062;34.834;2024-02-28T10:39:57;8.27;;;3.20;;
75937;SDS011;64615;32.062;34.834;2024-02-28T10:42:25;9.65;;;3.78;;
75937;SDS011;64615;32.062;34.834;2024-02-28T10:44:52;8.48;;;3.42;;
75937;SDS011;64615;32.062;34.834;2024-02-28T10:47:18;8.82;;;3.70;;
75937;SDS011;64615;32.062;34.834;2024-02-28T10:49:44;7.53;;;3.10;;
75937;SDS011;64615;32.062;34.834;2024-02-28T10:52:11;7.32;;;3.10;;
75937;SDS011;64615;32.062;34.834;2024-02-28T10:54:40;9.57;;;3.30;;
75937;SDS011;64615;32.062;34.834;2024-02-28T10:57:10;7.25;;;3.20;;
75937;SDS011;64615;32.062;34.834;2024-02-28T10:59:38;9.55;;;3.45;;
75937;SDS011;64615;32.062;34.834;2024-02-28T11:02:05;7.30;;;3.35;;
75937;SDS011;64615;32.062;34.834;2024-02-28T11:04:32;8.05;;;3.20;;
75937;SDS011;64615;32.062;34.834;2024-02-28T11:06:57;8.93;;;3.75;;
75937;SDS011;64615;32.062;34.834;2024-02-28T11:09:23;9.18;;;3.85;;
75937;SDS011;64615;32.062;34.834;2024-02-28T11:11:51;6.93;;;3.55;;
75937;SDS011;64615;32.062;34.834;2024-02-28T11:14:17;8.80;;;3.35;;
75937;SDS011;64615;32.062;34.834;2024-02-28T11:16:46;7.32;;;3.10;;
75937;SDS011;64615;32.062;34.834;2024-02-28T11:19:19;6.90;;;3.53;;
75937;SDS011;64615;32.062;34.834;2024-02-28T11:21:51;10.13;;;3.47;;
75937;SDS011;64615;32.062;34.834;2024-02-28T11:24:22;7.50;;;3.25;;
75937;SDS011;64615;32.062;34.834;2024-02-28T11:26:50;7.53;;;3.65;;
75937;SDS011;64615;32.062;34.834;2024-02-28T11:29:16;8.55;;;3.55;;
75937;SDS011;64615;32.062;34.834;2024-02-28T11:31:46;8.60;;;3.35;;
75937;SDS011;64615;32.062;34.834;2024-02-28T11:34:12;7.00;;;3.17;;
75937;SDS011;64615;32.062;34.834;2024-02-28T11:36:37;6.30;;;3.40;;
75937;SDS011;64615;32.062;34.834;2024-02-28T11:39:05;9.13;;;3.78;;
75937;SDS011;64615;32.062;34.834;2024-02-28T11:41:31;14.20;;;3.85;;
75937;SDS011;64615;32.062;34.834;2024-02-28T11:43:57;14.60;;;4.60;;
75937;SDS011;64615;32.062;34.834;2024-02-28T11:46:23;13.50;;;4.25;;
75937;SDS011;64615;32.062;34.834;2024-02-28T11:48:49;22.48;;;4.90;;
75937;SDS011;64615;32.062;34.834;2024-02-28T11:51:15;19.02;;;4.88;;
75937;SDS011;64615;32.062;34.834;2024-02-28T11:53:40;18.55;;;4.40;;
75937;SDS011;64615;32.062;34.834;2024-02-28T11:56:06;15.23;;;4.38;;
75937;SDS011;64615;32.062;34.834;2024-02-28T11:58:33;18.60;;;4.32;;
75937;SDS011;64615;32.062;34.834;2024-02-28T12:00:59;14.30;;;4.63;;
75937;SDS011;64615;32.062;34.834;2024-02-28T12:03:24;11.90;;;4.35;;
75937;SDS011;64615;32.062;34.834;2024-02-28T12:05:51;11.45;;;4.60;;
75937;SDS011;64615;32.062;34.834;2024-02-28T12:08:18;13.45;;;5.03;;
75937;SDS011;64615;32.062;34.834;2024-02-28T12:10:45;11.57;;;4.40;;
75937;SDS011;64615;32.062;34.834;2024-02-28T12:13:17;13.50;;;4.22;;
75937;SDS011;64615;32.062;34.834;2024-02-28T12:15:43;14.30;;;4.32;;
75937;SDS011;64615;32.062;34.834;2024-02-28T12:18:09;8.65;;;4.15;;
75937;SDS011;64615;32.062;34.834;2024-02-28T12:20:35;11.25;;;3.88;;
75937;SDS011;64615;32.062;34.834;2024-02-28T12:23:03;13.38;;;4.50;;
75937;SDS011;64615;32.062;34.834;2024-02-28T12:25:33;10.75;;;4.38;;
75937;SDS011;64615;32.062;34.834;2024-02-28T12:28:00;12.55;;;4.40;;
75937;SDS011;64615;32.062;34.834;2024-02-28T12:30:26;10.65;;;3.75;;
75937;SDS011;64615;32.062;34.834;2024-02-28T12:32:53;10.27;;;4.22;;
75937;SDS011;64615;32.062;34.834;2024-02-28T12:35:19;13.18;;;4.40;;
75937;SDS011;64615;32.062;34.834;2024-02-28T12:37:45;10.20;;;4.47;;
75937;SDS011;64615;32.062;34.834;2024-02-28T12:40:11;9.18;;;4.00;;
75937;SDS011;64615;32.062;34.834;2024-02-28T12:42:39;13.40;;;4.05;;
75937;SDS011;64615;32.062;34.834;2024-02-28T12:45:04;11.80;;;4.65;;
75937;SDS011;64615;32.062;34.834;2024-02-28T12:47:30;8.90;;;3.80;;
75937;SDS011;64615;32.062;34.834;2024-02-28T12:49:56;10.50;;;4.03;;
75937;SDS011;64615;32.062;34.834;2024-02-28T12:52:22;11.18;;;4.50;;
75937;SDS011;64615;32.062;34.834;2024-02-28T12:54:49;8.68;;;3.70;;
75937;SDS011;64615;32.062;34.834;2024-02-28T12:57:15;8.93;;;3.92;;
75937;SDS011;64615;32.062;34.834;2024-02-28T12:59:41;8.52;;;4.45;;
75937;SDS011;64615;32.062;34.834;2024-02-28T13:02:08;11.25;;;4.20;;
75937;SDS011;64615;32.062;34.834;2024-02-28T13:04:35;8.40;;;4.10;;
75937;SDS011;64615;32.062;34.834;2024-02-28T13:07:00;8.30;;;4.20;;
75937;SDS011;64615;32.062;34.834;2024-02-28T13:09:26;7.80;;;4.00;;
75937;SDS011;64615;32.062;34.834;2024-02-28T13:11:52;7.85;;;3.83;;
75937;SDS011;64615;32.062;34.834;2024-02-28T13:14:17;9.30;;;4.05;;
75937;SDS011;64615;32.062;34.834;2024-02-28T13:16:44;8.23;;;3.80;;
75937;SDS011;64615;32.062;34.834;2024-02-28T13:19:10;8.57;;;3.80;;
75937;SDS011;64615;32.062;34.834;2024-02-28T13:21:35;10.43;;;3.72;;
75937;SDS011;64615;32.062;34.834;2024-02-28T13:24:02;10.05;;;3.90;;
75937;SDS011;64615;32.062;34.834;2024-02-28T13:26:28;8.45;;;3.80;;
75937;SDS011;64615;32.062;34.834;2024-02-28T13:28:54;10.77;;;4.20;;
75937;SDS011;64615;32.062;34.834;2024-02-28T13:31:20;8.88;;;3.97;;
75937;SDS011;64615;32.062;34.834;2024-02-28T13:33:46;8.68;;;3.42;;
75937;SDS011;64615;32.062;34.834;2024-02-28T13:36:13;7.70;;;3.58;;
75937;SDS011;64615;32.062;34.834;2024-02-28T13:38:39;7.88;;;3.88;;
75937;SDS011;64615;32.062;34.834;2024-02-28T13:41:05;8.30;;;3.53;;
75937;SDS011;64615;32.062;34.834;2024-02-28T13:43:31;11.90;;;3.75;;
75937;SDS011;64615;32.062;34.834;2024-02-28T13:45:56;10.63;;;3.85;;
75937;SDS011;64615;32.062;34.834;2024-02-28T13:48:25;9.27;;;3.95;;
75937;SDS011;64615;32.062;34.834;2024-02-28T13:50:52;12.50;;;3.65;;
75937;SDS011;64615;32.062;34.834;2024-02-28T13:53:18;9.32;;;3.38;;
75937;SDS011;64615;32.062;34.834;2024-02-28T13:55:44;16.23;;;4.07;;
75937;SDS011;64615;32.062;34.834;2024-02-28T13:58:11;12.18;;;3.78;;
75937;SDS011;64615;32.062;34.834;2024-02-28T14:00:37;10.05;;;3.47;;
75937;SDS011;64615;32.062;34.834;2024-02-28T14:03:04;9.82;;;3.97;;
75937;SDS011;64615;32.062;34.834;2024-02-28T14:05:31;17.65;;;4.10;;
75937;SDS011;64615;32.062;34.834;2024-02-28T14:07:57;24.35;;;4.47;;
75937;SDS011;64615;32.062;34.834;2024-02-28T14:10:23;12.35;;;3.35;;
75937;SDS011;64615;32.062;34.834;2024-02-28T14:12:49;16.75;;;4.38;;
75937;SDS011;64615;32.062;34.834;2024-02-28T14:17:43;15.00;;;3.75;;
75937;SDS011;64615;32.062;34.834;2024-02-28T14:20:09;11.20;;;3.50;;
75937;SDS011;64615;32.062;34.834;2024-02-28T14:22:35;13.52;;;3.63;;
75937;SDS011;64615;32.062;34.834;2024-02-28T14:25:01;16.45;;;3.83;;